sensor_id;sensor_type;location;lat;lon;timestamp;P1;durP1;ratioP1;P2;durP2;ratioP2
9536;SDS011;4807;48.024;11.726;2022-11-27T00:02:26;3.53;;;2.63;;
9536;SDS011;4807;48.024;11.726;2022-11-27T00:05:36;3.93;;;3.53;;
9536;SDS011;4807;48.024;11.726;2022-11-27T00:08:44;4.60;;;3.60;;
9536;SDS011;4807;48.024;11.726;2022-11-27T00:11:54;3.20;;;2.90;;
9536;SDS011;4807;48.024;11.726;2022-11-27T00:15:02;6.30;;;3.80;;
9536;SDS011;4807;48.024;11.726;2022-11-27T00:18:11;9.27;;;4.30;;
9536;SDS011;4807;48.024;11.726;2022-11-27T00:21:22;5.17;;;3.33;;
9536;SDS011;4807;48.024;11.726;2022-11-27T00:24:32;4.57;;;4.07;;
9536;SDS011;4807;48.024;11.726;2022-11-27T00:27:40;6.33;;;4.10;;
9536;SDS011;4807;48.024;11.726;2022-11-27T00:30:49;3.80;;;3.50;;
9536;SDS011;4807;48.024;11.726;2022-11-27T00:33:58;5.70;;;3.40;;
9536;SDS011;4807;48.024;11.726;2022-11-27T00:37:11;4.27;;;3.50;;
9536;SDS011;4807;48.024;11.726;2022-11-27T00:40:20;3.73;;;2.70;;
9536;SDS011;4807;48.024;11.726;2022-11-27T00:43:28;4.17;;;3.50;;
9536;SDS011;4807;48.024;11.726;2022-11-27T00:46:42;3.60;;;2.93;;
9536;SDS011;4807;48.024;11.726;2022-11-27T00:49:50;3.80;;;3.17;;
9536;SDS011;4807;48.024;11.726;2022-11-27T00:53:00;3.23;;;2.93;;
9536;SDS011;4807;48.024;11.726;2022-11-27T00:56:09;4.07;;;2.90;;
9536;SDS011;4807;48.024;11.726;2022-11-27T00:59:21;4.80;;;2.80;;
9536;SDS011;4807;48.024;11.726;2022-11-27T01:02:30;3.37;;;3.07;;
9536;SDS011;4807;48.024;11.726;2022-11-27T01:05:38;4.73;;;3.10;;
9536;SDS011;4807;48.024;11.726;2022-11-27T01:08:48;5.03;;;3.20;;
9536;SDS011;4807;48.024;11.726;2022-11-27T01:11:56;3.10;;;2.80;;
9536;SDS011;4807;48.024;11.726;2022-11-27T01:15:05;4.63;;;3.33;;
9536;SDS011;4807;48.024;11.726;2022-11-27T01:18:14;4.57;;;3.33;;
9536;SDS011;4807;48.024;11.726;2022-11-27T01:21:23;4.57;;;3.03;;
9536;SDS011;4807;48.024;11.726;2022-11-27T01:24:36;4.23;;;3.63;;
9536;SDS011;4807;48.024;11.726;2022-11-27T01:27:44;5.40;;;3.40;;
9536;SDS011;4807;48.024;11.726;2022-11-27T01:30:53;4.57;;;3.73;;
9536;SDS011;4807;48.024;11.726;2022-11-27T01:34:02;4.17;;;3.63;;
9536;SDS011;4807;48.024;11.726;2022-11-27T01:37:12;3.10;;;2.60;;
9536;SDS011;4807;48.024;11.726;2022-11-27T01:40:22;3.57;;;2.77;;
9536;SDS011;4807;48.024;11.726;2022-11-27T01:43:35;3.03;;;2.73;;
9536;SDS011;4807;48.024;11.726;2022-11-27T01:46:46;3.00;;;2.70;;
9536;SDS011;4807;48.024;11.726;2022-11-27T01:50:00;2.67;;;2.30;;
9536;SDS011;4807;48.024;11.726;2022-11-27T01:53:20;3.07;;;2.40;;
9536;SDS011;4807;48.024;11.726;2022-11-27T01:56:30;3.30;;;2.70;;
9536;SDS011;4807;48.024;11.726;2022-11-27T01:59:38;3.87;;;3.00;;
9536;SDS011;4807;48.024;11.726;2022-11-27T02:02:48;3.63;;;2.97;;
9536;SDS011;4807;48.024;11.726;2022-11-27T02:05:57;3.00;;;2.80;;
9536;SDS011;4807;48.024;11.726;2022-11-27T02:09:05;4.40;;;3.23;;
9536;SDS011;4807;48.024;11.726;2022-11-27T02:12:17;3.47;;;2.83;;
9536;SDS011;4807;48.024;11.726;2022-11-27T02:15:32;5.63;;;2.80;;
9536;SDS011;4807;48.024;11.726;2022-11-27T02:18:53;3.03;;;2.43;;
9536;SDS011;4807;48.024;11.726;2022-11-27T02:22:07;2.57;;;2.27;;
9536;SDS011;4807;48.024;11.726;2022-11-27T02:25:41;4.80;;;3.27;;
9536;SDS011;4807;48.024;11.726;2022-11-27T02:29:07;2.70;;;2.50;;
9536;SDS011;4807;48.024;11.726;2022-11-27T02:32:19;3.50;;;2.93;;
9536;SDS011;4807;48.024;11.726;2022-11-27T02:35:38;2.90;;;2.67;;
9536;SDS011;4807;48.024;11.726;2022-11-27T02:38:56;2.43;;;2.23;;
9536;SDS011;4807;48.024;11.726;2022-11-27T02:42:11;3.93;;;2.60;;
9536;SDS011;4807;48.024;11.726;2022-11-27T02:45:27;3.50;;;2.67;;
9536;SDS011;4807;48.024;11.726;2022-11-27T02:48:41;2.07;;;1.90;;
9536;SDS011;4807;48.024;11.726;2022-11-27T02:51:55;4.00;;;2.33;;
9536;SDS011;4807;48.024;11.726;2022-11-27T02:55:08;3.40;;;2.37;;
9536;SDS011;4807;48.024;11.726;2022-11-27T02:58:24;3.63;;;2.70;;
9536;SDS011;4807;48.024;11.726;2022-11-27T03:01:37;2.10;;;2.00;;
9536;SDS011;4807;48.024;11.726;2022-11-27T03:04:52;2.60;;;2.40;;
9536;SDS011;4807;48.024;11.726;2022-11-27T03:08:04;2.30;;;2.10;;
9536;SDS011;4807;48.024;11.726;2022-11-27T03:11:16;3.60;;;2.37;;
9536;SDS011;4807;48.024;11.726;2022-11-27T03:14:25;2.77;;;2.37;;
9536;SDS011;4807;48.024;11.726;2022-11-27T03:17:38;3.80;;;2.80;;
9536;SDS011;4807;48.024;11.726;2022-11-27T03:21:01;2.53;;;2.20;;
9536;SDS011;4807;48.024;11.726;2022-11-27T03:24:22;2.53;;;1.97;;
9536;SDS011;4807;48.024;11.726;2022-11-27T03:27:32;2.10;;;1.90;;
9536;SDS011;4807;48.024;11.726;2022-11-27T03:30:47;1.77;;;1.67;;
9536;SDS011;4807;48.024;11.726;2022-11-27T03:33:57;2.47;;;2.27;;
9536;SDS011;4807;48.024;11.726;2022-11-27T03:37:06;2.43;;;2.23;;
9536;SDS011;4807;48.024;11.726;2022-11-27T03:40:15;2.70;;;2.40;;
9536;SDS011;4807;48.024;11.726;2022-11-27T03:43:25;4.57;;;2.50;;
9536;SDS011;4807;48.024;11.726;2022-11-27T03:46:44;1.93;;;1.73;;
9536;SDS011;4807;48.024;11.726;2022-11-27T03:50:12;2.30;;;2.10;;
9536;SDS011;4807;48.024;11.726;2022-11-27T03:53:37;2.53;;;1.80;;
9536;SDS011;4807;48.024;11.726;2022-11-27T03:57:00;2.73;;;2.07;;
9536;SDS011;4807;48.024;11.726;2022-11-27T04:00:21;2.10;;;1.90;;
9536;SDS011;4807;48.024;11.726;2022-11-27T04:03:30;2.80;;;2.00;;
9536;SDS011;4807;48.024;11.726;2022-11-27T04:06:40;3.33;;;2.50;;
9536;SDS011;4807;48.024;11.726;2022-11-27T04:09:48;4.37;;;2.43;;
9536;SDS011;4807;48.024;11.726;2022-11-27T04:12:56;2.90;;;2.40;;
9536;SDS011;4807;48.024;11.726;2022-11-27T04:16:05;3.50;;;2.27;;
9536;SDS011;4807;48.024;11.726;2022-11-27T04:19:14;2.43;;;2.10;;
9536;SDS011;4807;48.024;11.726;2022-11-27T04:22:24;3.60;;;2.50;;
9536;SDS011;4807;48.024;11.726;2022-11-27T04:25:32;5.30;;;2.60;;
9536;SDS011;4807;48.024;11.726;2022-11-27T04:28:40;2.73;;;2.40;;
9536;SDS011;4807;48.024;11.726;2022-11-27T04:31:48;3.97;;;2.77;;
9536;SDS011;4807;48.024;11.726;2022-11-27T04:34:57;3.77;;;2.53;;
9536;SDS011;4807;48.024;11.726;2022-11-27T04:38:07;2.17;;;1.90;;
9536;SDS011;4807;48.024;11.726;2022-11-27T04:41:15;2.57;;;1.97;;
9536;SDS011;4807;48.024;11.726;2022-11-27T04:44:23;6.50;;;2.13;;
9536;SDS011;4807;48.024;11.726;2022-11-27T04:47:31;4.03;;;2.47;;
9536;SDS011;4807;48.024;11.726;2022-11-27T04:50:40;2.17;;;1.97;;
9536;SDS011;4807;48.024;11.726;2022-11-27T04:53:49;2.10;;;1.97;;
9536;SDS011;4807;48.024;11.726;2022-11-27T04:56:58;2.87;;;2.27;;
9536;SDS011;4807;48.024;11.726;2022-11-27T05:00:07;2.87;;;2.30;;
9536;SDS011;4807;48.024;11.726;2022-11-27T05:03:16;2.93;;;2.63;;
9536;SDS011;4807;48.024;11.726;2022-11-27T05:06:24;3.80;;;2.30;;
9536;SDS011;4807;48.024;11.726;2022-11-27T05:09:34;4.27;;;2.20;;
9536;SDS011;4807;48.024;11.726;2022-11-27T05:12:43;2.43;;;2.13;;
9536;SDS011;4807;48.024;11.726;2022-11-27T05:15:51;1.93;;;1.70;;
9536;SDS011;4807;48.024;11.726;2022-11-27T05:18:59;2.20;;;2.00;;
9536;SDS011;4807;48.024;11.726;2022-11-27T05:22:08;1.90;;;1.60;;
9536;SDS011;4807;48.024;11.726;2022-11-27T05:25:18;1.70;;;1.60;;
9536;SDS011;4807;48.024;11.726;2022-11-27T05:28:26;3.07;;;1.97;;
9536;SDS011;4807;48.024;11.726;2022-11-27T05:34:54;3.90;;;2.93;;
9536;SDS011;4807;48.024;11.726;2022-11-27T05:38:02;5.57;;;3.50;;
9536;SDS011;4807;48.024;11.726;2022-11-27T05:41:12;7.20;;;3.87;;
9536;SDS011;4807;48.024;11.726;2022-11-27T05:44:20;7.60;;;3.30;;
9536;SDS011;4807;48.024;11.726;2022-11-27T05:47:28;3.90;;;2.53;;
9536;SDS011;4807;48.024;11.726;2022-11-27T05:50:37;5.37;;;2.13;;
9536;SDS011;4807;48.024;11.726;2022-11-27T05:53:46;4.87;;;3.40;;
9536;SDS011;4807;48.024;11.726;2022-11-27T05:56:56;4.47;;;2.80;;
9536;SDS011;4807;48.024;11.726;2022-11-27T06:00:04;3.27;;;2.60;;
9536;SDS011;4807;48.024;11.726;2022-11-27T06:03:14;5.37;;;3.13;;
9536;SDS011;4807;48.024;11.726;2022-11-27T06:06:23;4.63;;;2.87;;
9536;SDS011;4807;48.024;11.726;2022-11-27T06:09:31;2.97;;;2.47;;
9536;SDS011;4807;48.024;11.726;2022-11-27T06:12:41;3.47;;;2.40;;
9536;SDS011;4807;48.024;11.726;2022-11-27T06:15:49;3.00;;;2.70;;
9536;SDS011;4807;48.024;11.726;2022-11-27T06:18:58;6.60;;;4.83;;
9536;SDS011;4807;48.024;11.726;2022-11-27T06:22:06;6.07;;;3.73;;
9536;SDS011;4807;48.024;11.726;2022-11-27T06:25:14;4.90;;;4.40;;
9536;SDS011;4807;48.024;11.726;2022-11-27T06:28:25;4.20;;;3.80;;
9536;SDS011;4807;48.024;11.726;2022-11-27T06:31:33;4.33;;;3.93;;
9536;SDS011;4807;48.024;11.726;2022-11-27T06:34:41;5.37;;;4.87;;
9536;SDS011;4807;48.024;11.726;2022-11-27T06:37:50;5.90;;;4.50;;
9536;SDS011;4807;48.024;11.726;2022-11-27T06:41:02;4.47;;;4.00;;
9536;SDS011;4807;48.024;11.726;2022-11-27T06:44:13;5.57;;;4.50;;
9536;SDS011;4807;48.024;11.726;2022-11-27T06:47:21;6.00;;;3.80;;
9536;SDS011;4807;48.024;11.726;2022-11-27T06:50:31;3.00;;;2.70;;
9536;SDS011;4807;48.024;11.726;2022-11-27T06:53:40;3.23;;;2.93;;
9536;SDS011;4807;48.024;11.726;2022-11-27T06:56:49;3.87;;;3.20;;
9536;SDS011;4807;48.024;11.726;2022-11-27T06:59:59;44.63;;;22.83;;
9536;SDS011;4807;48.024;11.726;2022-11-27T07:03:07;39.60;;;21.40;;
9536;SDS011;4807;48.024;11.726;2022-11-27T07:06:17;28.53;;;16.23;;
9536;SDS011;4807;48.024;11.726;2022-11-27T07:09:28;12.10;;;8.37;;
9536;SDS011;4807;48.024;11.726;2022-11-27T07:12:36;6.13;;;4.63;;
9536;SDS011;4807;48.024;11.726;2022-11-27T07:15:46;4.33;;;3.73;;
9536;SDS011;4807;48.024;11.726;2022-11-27T07:18:56;5.47;;;3.83;;
9536;SDS011;4807;48.024;11.726;2022-11-27T07:22:06;6.93;;;5.10;;
9536;SDS011;4807;48.024;11.726;2022-11-27T07:25:15;7.20;;;3.50;;
9536;SDS011;4807;48.024;11.726;2022-11-27T07:28:23;28.40;;;21.33;;
9536;SDS011;4807;48.024;11.726;2022-11-27T07:31:33;9.93;;;8.00;;
9536;SDS011;4807;48.024;11.726;2022-11-27T07:34:41;8.00;;;6.00;;
9536;SDS011;4807;48.024;11.726;2022-11-27T07:37:50;8.67;;;6.07;;
9536;SDS011;4807;48.024;11.726;2022-11-27T07:40:58;8.13;;;6.00;;
9536;SDS011;4807;48.024;11.726;2022-11-27T07:44:08;7.20;;;4.73;;
9536;SDS011;4807;48.024;11.726;2022-11-27T07:47:18;7.80;;;5.10;;
9536;SDS011;4807;48.024;11.726;2022-11-27T07:50:26;6.37;;;5.63;;
9536;SDS011;4807;48.024;11.726;2022-11-27T07:53:34;8.17;;;6.20;;
9536;SDS011;4807;48.024;11.726;2022-11-27T07:56:43;9.17;;;7.20;;
9536;SDS011;4807;48.024;11.726;2022-11-27T07:59:52;9.70;;;6.00;;
9536;SDS011;4807;48.024;11.726;2022-11-27T08:03:01;9.57;;;6.30;;
9536;SDS011;4807;48.024;11.726;2022-11-27T08:06:15;6.77;;;5.83;;
9536;SDS011;4807;48.024;11.726;2022-11-27T08:09:25;6.53;;;5.33;;
9536;SDS011;4807;48.024;11.726;2022-11-27T08:12:35;7.50;;;6.50;;
9536;SDS011;4807;48.024;11.726;2022-11-27T08:15:46;8.73;;;6.80;;
9536;SDS011;4807;48.024;11.726;2022-11-27T08:18:56;7.10;;;6.10;;
9536;SDS011;4807;48.024;11.726;2022-11-27T08:22:05;17.17;;;10.57;;
9536;SDS011;4807;48.024;11.726;2022-11-27T08:25:18;9.97;;;7.60;;
9536;SDS011;4807;48.024;11.726;2022-11-27T08:28:26;8.23;;;6.17;;
9536;SDS011;4807;48.024;11.726;2022-11-27T08:31:35;8.10;;;6.27;;
9536;SDS011;4807;48.024;11.726;2022-11-27T08:34:44;8.87;;;6.03;;
9536;SDS011;4807;48.024;11.726;2022-11-27T08:37:53;6.07;;;5.40;;
9536;SDS011;4807;48.024;11.726;2022-11-27T08:41:02;5.67;;;4.77;;
9536;SDS011;4807;48.024;11.726;2022-11-27T08:44:12;6.47;;;4.77;;
9536;SDS011;4807;48.024;11.726;2022-11-27T08:47:20;5.27;;;4.77;;
9536;SDS011;4807;48.024;11.726;2022-11-27T08:50:30;7.70;;;5.80;;
9536;SDS011;4807;48.024;11.726;2022-11-27T08:53:38;10.97;;;6.23;;
9536;SDS011;4807;48.024;11.726;2022-11-27T08:56:50;7.67;;;5.80;;
9536;SDS011;4807;48.024;11.726;2022-11-27T08:59:59;5.37;;;4.70;;
9536;SDS011;4807;48.024;11.726;2022-11-27T09:03:09;6.60;;;5.03;;
9536;SDS011;4807;48.024;11.726;2022-11-27T09:06:20;6.37;;;4.97;;
9536;SDS011;4807;48.024;11.726;2022-11-27T09:09:33;6.03;;;4.30;;
9536;SDS011;4807;48.024;11.726;2022-11-27T09:12:43;4.80;;;4.17;;
9536;SDS011;4807;48.024;11.726;2022-11-27T09:15:51;6.33;;;4.07;;
9536;SDS011;4807;48.024;11.726;2022-11-27T09:19:00;5.63;;;4.60;;
9536;SDS011;4807;48.024;11.726;2022-11-27T09:22:10;6.30;;;4.33;;
9536;SDS011;4807;48.024;11.726;2022-11-27T09:25:19;4.37;;;3.30;;
9536;SDS011;4807;48.024;11.726;2022-11-27T09:28:27;8.57;;;5.00;;
9536;SDS011;4807;48.024;11.726;2022-11-27T09:31:37;5.50;;;5.00;;
9536;SDS011;4807;48.024;11.726;2022-11-27T09:34:45;9.47;;;6.70;;
9536;SDS011;4807;48.024;11.726;2022-11-27T09:37:55;7.70;;;4.17;;
9536;SDS011;4807;48.024;11.726;2022-11-27T09:41:06;4.30;;;3.90;;
9536;SDS011;4807;48.024;11.726;2022-11-27T09:44:44;9.13;;;6.03;;
9536;SDS011;4807;48.024;11.726;2022-11-27T09:48:01;17.70;;;8.27;;
9536;SDS011;4807;48.024;11.726;2022-11-27T09:51:21;7.37;;;5.27;;
9536;SDS011;4807;48.024;11.726;2022-11-27T09:54:43;9.47;;;6.10;;
9536;SDS011;4807;48.024;11.726;2022-11-27T09:58:03;5.23;;;4.70;;
9536;SDS011;4807;48.024;11.726;2022-11-27T10:01:20;7.67;;;5.43;;
9536;SDS011;4807;48.024;11.726;2022-11-27T10:04:43;6.43;;;4.93;;
9536;SDS011;4807;48.024;11.726;2022-11-27T10:08:22;5.27;;;3.93;;
9536;SDS011;4807;48.024;11.726;2022-11-27T10:11:47;6.17;;;4.27;;
9536;SDS011;4807;48.024;11.726;2022-11-27T10:15:09;4.07;;;3.67;;
9536;SDS011;4807;48.024;11.726;2022-11-27T10:18:28;5.60;;;4.27;;
9536;SDS011;4807;48.024;11.726;2022-11-27T10:21:48;6.37;;;4.43;;
9536;SDS011;4807;48.024;11.726;2022-11-27T10:25:07;4.77;;;4.00;;
9536;SDS011;4807;48.024;11.726;2022-11-27T10:28:27;4.67;;;4.27;;
9536;SDS011;4807;48.024;11.726;2022-11-27T10:31:46;6.27;;;4.07;;
9536;SDS011;4807;48.024;11.726;2022-11-27T10:35:00;4.93;;;4.37;;
9536;SDS011;4807;48.024;11.726;2022-11-27T10:38:16;4.93;;;4.40;;
9536;SDS011;4807;48.024;11.726;2022-11-27T10:41:32;4.70;;;3.77;;
9536;SDS011;4807;48.024;11.726;2022-11-27T10:44:58;6.03;;;3.67;;
9536;SDS011;4807;48.024;11.726;2022-11-27T10:48:11;3.90;;;3.03;;
9536;SDS011;4807;48.024;11.726;2022-11-27T10:51:21;7.13;;;3.30;;
9536;SDS011;4807;48.024;11.726;2022-11-27T10:54:37;3.93;;;3.53;;
9536;SDS011;4807;48.024;11.726;2022-11-27T10:57:49;3.57;;;2.97;;
9536;SDS011;4807;48.024;11.726;2022-11-27T11:01:15;9.30;;;6.07;;
9536;SDS011;4807;48.024;11.726;2022-11-27T11:04:26;3.80;;;3.37;;
9536;SDS011;4807;48.024;11.726;2022-11-27T11:07:51;4.80;;;3.30;;
9536;SDS011;4807;48.024;11.726;2022-11-27T11:11:08;8.07;;;4.80;;
9536;SDS011;4807;48.024;11.726;2022-11-27T11:14:17;4.23;;;3.30;;
9536;SDS011;4807;48.024;11.726;2022-11-27T11:17:31;3.37;;;2.77;;
9536;SDS011;4807;48.024;11.726;2022-11-27T11:20:42;4.57;;;2.83;;
9536;SDS011;4807;48.024;11.726;2022-11-27T11:23:56;3.50;;;3.00;;
9536;SDS011;4807;48.024;11.726;2022-11-27T11:27:11;4.97;;;3.27;;
9536;SDS011;4807;48.024;11.726;2022-11-27T11:30:25;3.53;;;3.23;;
9536;SDS011;4807;48.024;11.726;2022-11-27T11:33:38;3.90;;;3.47;;
9536;SDS011;4807;48.024;11.726;2022-11-27T11:36:57;3.03;;;2.73;;
9536;SDS011;4807;48.024;11.726;2022-11-27T11:40:20;3.70;;;3.40;;
9536;SDS011;4807;48.024;11.726;2022-11-27T11:43:33;3.53;;;2.97;;
9536;SDS011;4807;48.024;11.726;2022-11-27T11:46:49;2.47;;;2.27;;
9536;SDS011;4807;48.024;11.726;2022-11-27T11:50:01;3.63;;;2.90;;
9536;SDS011;4807;48.024;11.726;2022-11-27T11:53:11;2.70;;;2.50;;
9536;SDS011;4807;48.024;11.726;2022-11-27T11:56:37;3.77;;;3.20;;
9536;SDS011;4807;48.024;11.726;2022-11-27T11:59:57;5.20;;;2.80;;
9536;SDS011;4807;48.024;11.726;2022-11-27T12:03:26;3.33;;;3.03;;
9536;SDS011;4807;48.024;11.726;2022-11-27T12:06:52;3.37;;;3.07;;
9536;SDS011;4807;48.024;11.726;2022-11-27T12:10:12;3.90;;;3.50;;
9536;SDS011;4807;48.024;11.726;2022-11-27T12:13:38;5.90;;;3.17;;
9536;SDS011;4807;48.024;11.726;2022-11-27T12:17:04;3.83;;;3.43;;
9536;SDS011;4807;48.024;11.726;2022-11-27T12:20:39;4.93;;;3.33;;
9536;SDS011;4807;48.024;11.726;2022-11-27T12:24:10;3.30;;;3.00;;
9536;SDS011;4807;48.024;11.726;2022-11-27T12:27:38;2.50;;;2.30;;
9536;SDS011;4807;48.024;11.726;2022-11-27T12:31:05;2.20;;;2.00;;
9536;SDS011;4807;48.024;11.726;2022-11-27T12:34:28;2.87;;;2.37;;
9536;SDS011;4807;48.024;11.726;2022-11-27T12:37:59;2.27;;;2.00;;
9536;SDS011;4807;48.024;11.726;2022-11-27T12:41:41;2.13;;;1.93;;
9536;SDS011;4807;48.024;11.726;2022-11-27T12:45:11;2.30;;;2.10;;
9536;SDS011;4807;48.024;11.726;2022-11-27T12:48:30;3.03;;;2.00;;
9536;SDS011;4807;48.024;11.726;2022-11-27T12:51:46;3.43;;;2.50;;
9536;SDS011;4807;48.024;11.726;2022-11-27T12:55:00;2.40;;;1.80;;
9536;SDS011;4807;48.024;11.726;2022-11-27T12:58:19;1.70;;;1.60;;
9536;SDS011;4807;48.024;11.726;2022-11-27T13:01:38;3.23;;;1.93;;
9536;SDS011;4807;48.024;11.726;2022-11-27T13:04:53;3.33;;;2.23;;
9536;SDS011;4807;48.024;11.726;2022-11-27T13:08:11;1.80;;;1.70;;
9536;SDS011;4807;48.024;11.726;2022-11-27T13:11:27;2.10;;;1.70;;
9536;SDS011;4807;48.024;11.726;2022-11-27T13:14:43;1.93;;;1.80;;
9536;SDS011;4807;48.024;11.726;2022-11-27T13:18:12;3.10;;;1.80;;
9536;SDS011;4807;48.024;11.726;2022-11-27T13:21:30;2.63;;;1.93;;
9536;SDS011;4807;48.024;11.726;2022-11-27T13:24:44;2.27;;;2.07;;
9536;SDS011;4807;48.024;11.726;2022-11-27T13:27:53;2.63;;;2.30;;
9536;SDS011;4807;48.024;11.726;2022-11-27T13:31:07;2.67;;;2.10;;
9536;SDS011;4807;48.024;11.726;2022-11-27T13:34:29;2.77;;;2.57;;
9536;SDS011;4807;48.024;11.726;2022-11-27T13:37:54;3.23;;;2.37;;
9536;SDS011;4807;48.024;11.726;2022-11-27T13:41:18;4.10;;;2.10;;
9536;SDS011;4807;48.024;11.726;2022-11-27T13:44:30;3.40;;;2.60;;
9536;SDS011;4807;48.024;11.726;2022-11-27T13:47:45;2.80;;;2.37;;
9536;SDS011;4807;48.024;11.726;2022-11-27T13:50:57;2.53;;;2.33;;
9536;SDS011;4807;48.024;11.726;2022-11-27T13:54:08;3.60;;;3.10;;
9536;SDS011;4807;48.024;11.726;2022-11-27T13:57:20;3.20;;;2.40;;
9536;SDS011;4807;48.024;11.726;2022-11-27T14:00:30;4.13;;;2.70;;
9536;SDS011;4807;48.024;11.726;2022-11-27T14:03:45;3.33;;;2.93;;
9536;SDS011;4807;48.024;11.726;2022-11-27T14:06:55;3.00;;;2.63;;
9536;SDS011;4807;48.024;11.726;2022-11-27T14:10:13;3.40;;;3.10;;
9536;SDS011;4807;48.024;11.726;2022-11-27T14:13:32;4.20;;;3.13;;
9536;SDS011;4807;48.024;11.726;2022-11-27T14:16:54;4.03;;;2.87;;
9536;SDS011;4807;48.024;11.726;2022-11-27T14:20:21;5.70;;;3.40;;
9536;SDS011;4807;48.024;11.726;2022-11-27T14:23:47;4.23;;;3.80;;
9536;SDS011;4807;48.024;11.726;2022-11-27T14:26:58;3.83;;;3.43;;
9536;SDS011;4807;48.024;11.726;2022-11-27T14:30:19;4.60;;;3.70;;
9536;SDS011;4807;48.024;11.726;2022-11-27T14:33:41;4.40;;;3.33;;
9536;SDS011;4807;48.024;11.726;2022-11-27T14:37:20;5.33;;;3.93;;
9536;SDS011;4807;48.024;11.726;2022-11-27T14:40:31;5.00;;;4.03;;
9536;SDS011;4807;48.024;11.726;2022-11-27T14:43:39;4.30;;;3.60;;
9536;SDS011;4807;48.024;11.726;2022-11-27T14:46:47;5.87;;;4.67;;
9536;SDS011;4807;48.024;11.726;2022-11-27T14:49:57;5.13;;;4.23;;
9536;SDS011;4807;48.024;11.726;2022-11-27T14:53:09;4.33;;;3.93;;
9536;SDS011;4807;48.024;11.726;2022-11-27T14:56:19;5.73;;;4.47;;
9536;SDS011;4807;48.024;11.726;2022-11-27T14:59:28;5.57;;;5.00;;
9536;SDS011;4807;48.024;11.726;2022-11-27T15:02:37;7.53;;;6.27;;
9536;SDS011;4807;48.024;11.726;2022-11-27T15:05:49;6.70;;;5.27;;
9536;SDS011;4807;48.024;11.726;2022-11-27T15:09:14;8.30;;;6.43;;
9536;SDS011;4807;48.024;11.726;2022-11-27T15:12:44;6.97;;;6.10;;
9536;SDS011;4807;48.024;11.726;2022-11-27T15:15:56;7.83;;;5.73;;
9536;SDS011;4807;48.024;11.726;2022-11-27T15:19:11;7.23;;;5.83;;
9536;SDS011;4807;48.024;11.726;2022-11-27T15:22:25;8.97;;;6.50;;
9536;SDS011;4807;48.024;11.726;2022-11-27T15:25:36;9.93;;;7.17;;
9536;SDS011;4807;48.024;11.726;2022-11-27T15:28:49;9.40;;;6.40;;
9536;SDS011;4807;48.024;11.726;2022-11-27T15:32:00;9.03;;;6.50;;
9536;SDS011;4807;48.024;11.726;2022-11-27T15:35:11;6.83;;;5.33;;
9536;SDS011;4807;48.024;11.726;2022-11-27T15:38:22;9.60;;;6.63;;
9536;SDS011;4807;48.024;11.726;2022-11-27T15:41:31;11.00;;;7.10;;
9536;SDS011;4807;48.024;11.726;2022-11-27T15:44:46;6.70;;;5.77;;
9536;SDS011;4807;48.024;11.726;2022-11-27T15:47:59;6.10;;;5.50;;
9536;SDS011;4807;48.024;11.726;2022-11-27T15:51:08;9.50;;;6.80;;
9536;SDS011;4807;48.024;11.726;2022-11-27T15:54:17;11.03;;;9.23;;
9536;SDS011;4807;48.024;11.726;2022-11-27T15:57:27;7.77;;;5.73;;
9536;SDS011;4807;48.024;11.726;2022-11-27T16:00:35;7.13;;;5.70;;
9536;SDS011;4807;48.024;11.726;2022-11-27T16:03:45;11.30;;;5.70;;
9536;SDS011;4807;48.024;11.726;2022-11-27T16:06:54;6.67;;;5.37;;
9536;SDS011;4807;48.024;11.726;2022-11-27T16:10:02;8.00;;;5.13;;
9536;SDS011;4807;48.024;11.726;2022-11-27T16:13:14;8.67;;;6.17;;
9536;SDS011;4807;48.024;11.726;2022-11-27T16:16:24;10.90;;;5.27;;
9536;SDS011;4807;48.024;11.726;2022-11-27T16:19:34;7.17;;;4.47;;
9536;SDS011;4807;48.024;11.726;2022-11-27T16:22:43;5.60;;;4.80;;
9536;SDS011;4807;48.024;11.726;2022-11-27T16:25:54;15.13;;;5.30;;
9536;SDS011;4807;48.024;11.726;2022-11-27T16:29:05;9.67;;;5.90;;
9536;SDS011;4807;48.024;11.726;2022-11-27T16:32:15;6.77;;;5.07;;
9536;SDS011;4807;48.024;11.726;2022-11-27T16:35:24;6.80;;;5.77;;
9536;SDS011;4807;48.024;11.726;2022-11-27T16:38:33;6.67;;;5.30;;
9536;SDS011;4807;48.024;11.726;2022-11-27T16:41:43;5.33;;;4.60;;
9536;SDS011;4807;48.024;11.726;2022-11-27T16:44:54;8.47;;;5.77;;
9536;SDS011;4807;48.024;11.726;2022-11-27T16:48:02;8.37;;;6.30;;
9536;SDS011;4807;48.024;11.726;2022-11-27T16:51:13;8.43;;;5.60;;
9536;SDS011;4807;48.024;11.726;2022-11-27T16:54:25;7.67;;;5.20;;
9536;SDS011;4807;48.024;11.726;2022-11-27T16:57:34;6.87;;;5.57;;
9536;SDS011;4807;48.024;11.726;2022-11-27T17:00:44;15.03;;;9.07;;
9536;SDS011;4807;48.024;11.726;2022-11-27T17:03:52;12.20;;;9.40;;
9536;SDS011;4807;48.024;11.726;2022-11-27T17:07:01;10.13;;;6.63;;
9536;SDS011;4807;48.024;11.726;2022-11-27T17:10:11;14.83;;;7.60;;
9536;SDS011;4807;48.024;11.726;2022-11-27T17:13:19;7.87;;;6.03;;
9536;SDS011;4807;48.024;11.726;2022-11-27T17:16:32;7.50;;;5.47;;
9536;SDS011;4807;48.024;11.726;2022-11-27T17:19:42;7.23;;;5.57;;
9536;SDS011;4807;48.024;11.726;2022-11-27T17:22:51;7.17;;;6.00;;
9536;SDS011;4807;48.024;11.726;2022-11-27T17:26:04;9.80;;;5.47;;
9536;SDS011;4807;48.024;11.726;2022-11-27T17:29:16;11.90;;;5.47;;
9536;SDS011;4807;48.024;11.726;2022-11-27T17:32:29;12.93;;;5.40;;
9536;SDS011;4807;48.024;11.726;2022-11-27T17:35:37;6.90;;;5.37;;
9536;SDS011;4807;48.024;11.726;2022-11-27T17:38:46;7.17;;;5.70;;
9536;SDS011;4807;48.024;11.726;2022-11-27T17:41:54;8.20;;;5.80;;
9536;SDS011;4807;48.024;11.726;2022-11-27T17:45:03;8.13;;;6.00;;
9536;SDS011;4807;48.024;11.726;2022-11-27T17:48:16;7.43;;;5.23;;
9536;SDS011;4807;48.024;11.726;2022-11-27T17:51:26;7.20;;;5.33;;
9536;SDS011;4807;48.024;11.726;2022-11-27T17:54:36;18.63;;;5.87;;
9536;SDS011;4807;48.024;11.726;2022-11-27T17:57:45;8.00;;;5.53;;
9536;SDS011;4807;48.024;11.726;2022-11-27T18:00:53;6.40;;;5.47;;
9536;SDS011;4807;48.024;11.726;2022-11-27T18:04:03;9.97;;;5.60;;
9536;SDS011;4807;48.024;11.726;2022-11-27T18:07:16;12.40;;;6.57;;
9536;SDS011;4807;48.024;11.726;2022-11-27T18:10:27;9.50;;;6.50;;
9536;SDS011;4807;48.024;11.726;2022-11-27T18:13:36;9.93;;;6.83;;
9536;SDS011;4807;48.024;11.726;2022-11-27T18:16:44;9.07;;;6.50;;
9536;SDS011;4807;48.024;11.726;2022-11-27T18:19:55;10.20;;;6.77;;
9536;SDS011;4807;48.024;11.726;2022-11-27T18:23:04;19.00;;;7.97;;
9536;SDS011;4807;48.024;11.726;2022-11-27T18:26:13;19.20;;;13.53;;
9536;SDS011;4807;48.024;11.726;2022-11-27T18:29:24;8.80;;;6.70;;
9536;SDS011;4807;48.024;11.726;2022-11-27T18:32:34;7.40;;;6.03;;
9536;SDS011;4807;48.024;11.726;2022-11-27T18:35:44;12.73;;;6.83;;
9536;SDS011;4807;48.024;11.726;2022-11-27T18:38:53;10.93;;;7.37;;
9536;SDS011;4807;48.024;11.726;2022-11-27T18:42:01;9.47;;;7.43;;
9536;SDS011;4807;48.024;11.726;2022-11-27T18:45:11;11.73;;;8.27;;
9536;SDS011;4807;48.024;11.726;2022-11-27T18:48:38;16.07;;;11.43;;
9536;SDS011;4807;48.024;11.726;2022-11-27T18:51:49;10.23;;;8.33;;
9536;SDS011;4807;48.024;11.726;2022-11-27T18:54:58;12.27;;;9.37;;
9536;SDS011;4807;48.024;11.726;2022-11-27T18:58:09;13.43;;;10.30;;
9536;SDS011;4807;48.024;11.726;2022-11-27T19:01:21;12.60;;;8.47;;
9536;SDS011;4807;48.024;11.726;2022-11-27T19:04:33;10.37;;;8.10;;
9536;SDS011;4807;48.024;11.726;2022-11-27T19:07:44;10.07;;;7.40;;
9536;SDS011;4807;48.024;11.726;2022-11-27T19:10:58;9.90;;;6.93;;
9536;SDS011;4807;48.024;11.726;2022-11-27T19:14:08;9.90;;;7.70;;
9536;SDS011;4807;48.024;11.726;2022-11-27T19:17:18;9.47;;;7.10;;
9536;SDS011;4807;48.024;11.726;2022-11-27T19:20:34;9.33;;;7.43;;
9536;SDS011;4807;48.024;11.726;2022-11-27T19:23:46;14.50;;;7.90;;
9536;SDS011;4807;48.024;11.726;2022-11-27T19:26:55;11.90;;;8.33;;
9536;SDS011;4807;48.024;11.726;2022-11-27T19:30:05;11.53;;;8.83;;
9536;SDS011;4807;48.024;11.726;2022-11-27T19:33:14;13.73;;;9.40;;
9536;SDS011;4807;48.024;11.726;2022-11-27T19:36:23;9.77;;;7.63;;
9536;SDS011;4807;48.024;11.726;2022-11-27T19:39:35;11.50;;;8.53;;
9536;SDS011;4807;48.024;11.726;2022-11-27T19:42:43;11.47;;;8.43;;